createdAt,value
2022-08-19T00:02:13.966Z,101012.00
2022-08-19T00:04:41.404Z,101007.00
2022-08-19T00:07:08.723Z,101004.00
2022-08-19T00:09:36.487Z,100997.00
2022-08-19T00:12:04.372Z,101000.00
2022-08-19T00:14:35.372Z,101007.00
2022-08-19T00:17:04.146Z,101006.00
2022-08-19T00:19:31.670Z,101011.00
2022-08-19T00:21:58.778Z,101005.00
2022-08-19T00:24:27.115Z,101011.00
2022-08-19T00:26:54.267Z,101018.00
2022-08-19T00:29:22.628Z,101003.00
2022-08-19T00:31:51.331Z,101007.00
2022-08-19T00:34:18.533Z,101006.00
2022-08-19T00:36:46.608Z,101008.00
2022-08-19T00:39:15.230Z,101007.00
2022-08-19T00:41:44.088Z,100999.00
2022-08-19T00:44:28.078Z,100996.00
2022-08-19T00:47:00.080Z,100999.00
2022-08-19T00:49:41.933Z,101003.00
2022-08-19T00:52:13.541Z,100996.00
2022-08-19T00:54:42.824Z,101001.00
2022-08-19T00:57:16.956Z,100997.00
2022-08-19T01:00:00.807Z,100996.00
2022-08-19T01:02:31.829Z,101001.00
2022-08-19T01:05:00.227Z,101003.00
2022-08-19T01:07:27.840Z,101001.00
2022-08-19T01:09:55.508Z,101003.00
2022-08-19T01:12:23.084Z,101002.00
2022-08-19T01:14:51.522Z,100989.00
2022-08-19T01:17:20.788Z,101001.00
2022-08-19T01:19:49.363Z,100993.00
2022-08-19T01:22:30.113Z,101013.00
2022-08-19T01:24:59.331Z,101013.00
2022-08-19T01:27:26.757Z,101013.00
2022-08-19T01:29:57.319Z,101020.00
2022-08-19T01:32:33.428Z,101012.00
2022-08-19T01:35:03.820Z,101023.00
2022-08-19T01:37:42.424Z,101013.00
2022-08-19T01:40:11.196Z,101017.00
2022-08-19T01:42:38.427Z,101019.00
2022-08-19T01:45:08.602Z,101006.00
2022-08-19T01:47:38.215Z,101014.00
2022-08-19T01:50:11.278Z,101011.00
2022-08-19T01:52:42.190Z,101011.00
2022-08-19T01:55:17.838Z,101020.00
2022-08-19T01:57:52.852Z,101030.00
2022-08-19T02:00:24.325Z,101029.00
2022-08-19T02:02:51.786Z,101022.00
2022-08-19T02:05:19.575Z,101030.00
2022-08-19T02:07:46.875Z,101027.00
2022-08-19T02:10:19.824Z,101035.00
2022-08-19T02:12:47.659Z,101028.00
2022-08-19T02:15:15.035Z,101029.00
2022-08-19T02:17:43.414Z,101030.00
2022-08-19T02:20:11.717Z,101013.00
2022-08-19T02:22:38.945Z,101012.00
2022-08-19T02:25:06.632Z,101029.00
2022-08-19T02:27:34.883Z,101024.00
2022-08-19T02:30:02.238Z,101022.00
2022-08-19T02:32:31.620Z,101021.00
2022-08-19T02:34:58.876Z,101032.00
2022-08-19T02:37:44.474Z,101029.00
2022-08-19T02:40:12.804Z,101030.00
2022-08-19T02:42:41.948Z,101036.00
2022-08-19T02:45:10.381Z,101023.00
2022-08-19T02:47:37.788Z,101028.00
2022-08-19T02:50:06.478Z,101019.00
2022-08-19T02:52:36.017Z,101015.00
2022-08-19T02:55:03.947Z,101027.00
2022-08-19T02:57:35.447Z,101026.00
2022-08-19T03:00:06.675Z,101017.00
2022-08-19T03:02:33.907Z,101028.00
2022-08-19T03:05:01.093Z,101016.00
2022-08-19T03:07:28.240Z,101023.00
2022-08-19T03:09:55.646Z,101023.00
2022-08-19T03:12:22.810Z,101032.00
2022-08-19T03:14:49.965Z,101026.00
2022-08-19T03:17:17.385Z,101026.00
2022-08-19T03:19:44.500Z,101036.00
2022-08-19T03:22:11.813Z,101033.00
2022-08-19T03:24:39.729Z,101037.00
2022-08-19T03:27:06.836Z,101039.00
2022-08-19T03:29:43.258Z,101044.00
2022-08-19T03:32:27.230Z,101035.00
2022-08-19T03:34:59.239Z,101032.00
2022-08-19T03:37:27.188Z,101024.00
2022-08-19T03:39:54.327Z,101029.00
2022-08-19T03:42:32.041Z,101030.00
2022-08-19T03:45:08.379Z,101028.00
2022-08-19T03:47:35.613Z,101032.00
2022-08-19T03:50:03.429Z,101030.00
2022-08-19T03:52:30.613Z,101033.00
2022-08-19T03:54:57.815Z,101039.00
2022-08-19T03:57:32.125Z,101041.00
2022-08-19T04:00:12.895Z,101044.00
2022-08-19T04:02:58.266Z,101031.00
2022-08-19T04:05:30.256Z,101026.00
2022-08-19T04:08:00.176Z,101038.00
2022-08-19T04:10:29.430Z,101036.00
2022-08-19T04:12:59.082Z,101038.00
2022-08-19T04:15:26.243Z,101038.00
2022-08-19T04:17:53.412Z,101043.00
2022-08-19T04:20:20.673Z,101032.00
2022-08-19T04:22:47.845Z,101043.00
2022-08-19T04:25:15.061Z,101040.00
2022-08-19T04:27:47.924Z,101040.00
2022-08-19T04:30:16.137Z,101046.00
2022-08-19T04:32:44.814Z,101048.00
2022-08-19T04:35:16.909Z,101040.00
2022-08-19T04:37:45.981Z,101032.00
2022-08-19T04:40:31.818Z,101051.00
2022-08-19T04:42:59.637Z,101033.00
2022-08-19T04:45:26.906Z,101032.00
2022-08-19T04:48:27.318Z,101025.00
2022-08-19T04:50:47.121Z,101036.00
2022-08-19T04:53:14.358Z,101045.00
2022-08-19T04:55:43.522Z,101046.00
2022-08-19T04:58:11.103Z,101054.00
2022-08-19T05:00:41.095Z,101046.00
2022-08-19T05:03:08.680Z,101049.00
2022-08-19T05:05:45.298Z,101041.00
2022-08-19T05:08:30.930Z,101052.00
2022-08-19T05:10:59.309Z,101057.00
2022-08-19T05:13:26.899Z,101056.00
2022-08-19T05:15:59.438Z,101053.00
2022-08-19T05:18:45.922Z,101057.00
2022-08-19T05:21:35.695Z,101059.00
2022-08-19T05:24:03.475Z,101054.00
2022-08-19T05:26:30.705Z,101057.00
2022-08-19T05:28:57.883Z,101060.00
2022-08-19T05:31:25.065Z,101051.00
2022-08-19T05:33:52.309Z,101063.00
2022-08-19T05:36:21.137Z,101056.00
2022-08-19T05:38:48.831Z,101051.00
2022-08-19T05:41:17.652Z,101045.00
2022-08-19T05:43:44.813Z,101048.00
2022-08-19T05:46:27.792Z,101046.00
2022-08-19T05:48:57.615Z,101049.00
2022-08-19T05:51:29.181Z,101045.00
2022-08-19T05:53:56.602Z,101056.00
2022-08-19T05:56:23.928Z,101061.00
2022-08-19T05:58:51.152Z,101051.00
2022-08-19T06:01:19.880Z,101064.00
2022-08-19T06:03:48.705Z,101065.00
2022-08-19T06:06:17.235Z,101063.00
2022-08-19T06:08:46.294Z,101072.00
2022-08-19T06:11:51.768Z,101072.00
2022-08-19T06:14:27.755Z,101072.00
2022-08-19T06:16:55.738Z,101072.00
2022-08-19T06:19:29.405Z,101067.00
2022-08-19T06:21:59.286Z,101069.00
2022-08-19T06:24:30.133Z,101071.00
2022-08-19T06:27:01.453Z,101079.00
2022-08-19T06:29:31.106Z,101085.00
2022-08-19T06:32:01.258Z,101069.00
2022-08-19T06:34:33.532Z,101077.00
2022-08-19T06:37:02.586Z,101093.00
2022-08-19T06:39:39.380Z,101087.00
2022-08-19T06:42:11.033Z,101094.00
2022-08-19T06:44:42.741Z,101088.00
2022-08-19T06:47:23.358Z,101101.00
2022-08-19T06:50:03.922Z,101091.00
2022-08-19T06:52:38.263Z,101075.00
2022-08-19T06:55:06.851Z,101089.00
2022-08-19T06:57:35.061Z,101079.00
2022-08-19T07:00:03.288Z,101083.00
2022-08-19T07:02:30.599Z,101094.00
2022-08-19T07:05:03.666Z,101101.00
2022-08-19T07:07:34.672Z,101115.00
2022-08-19T07:10:04.860Z,101106.00
2022-08-19T07:12:35.558Z,101105.00
2022-08-19T07:15:09.814Z,101104.00
2022-08-19T07:17:40.389Z,101088.00
2022-08-19T07:20:10.177Z,101102.00
2022-08-19T07:22:39.746Z,101087.00
2022-08-19T07:25:09.608Z,101099.00
2022-08-19T07:27:39.666Z,101085.00
2022-08-19T07:30:12.249Z,101101.00
2022-08-19T07:32:40.631Z,101103.00
2022-08-19T07:35:09.942Z,101100.00
2022-08-19T07:37:38.472Z,101110.00
2022-08-19T07:40:08.907Z,101114.00
2022-08-19T07:42:36.478Z,101116.00
2022-08-19T07:45:06.285Z,101125.00
2022-08-19T07:47:47.732Z,101120.00
2022-08-19T07:50:20.750Z,101129.00
2022-08-19T07:52:50.901Z,101127.00
2022-08-19T07:55:41.039Z,101129.00
2022-08-19T07:58:14.359Z,101125.00
2022-08-19T08:00:43.769Z,101135.00
2022-08-19T08:03:11.818Z,101120.00
2022-08-19T08:05:57.700Z,101122.00
2022-08-19T08:08:36.768Z,101139.00
2022-08-19T08:11:07.760Z,101141.00
2022-08-19T08:13:39.354Z,101144.00
2022-08-19T08:16:10.215Z,101140.00
2022-08-19T08:18:50.236Z,101141.00
2022-08-19T08:21:18.305Z,101138.00
2022-08-19T08:23:45.631Z,101144.00
2022-08-19T08:26:14.175Z,101133.00
2022-08-19T08:28:43.274Z,101150.00
2022-08-19T08:31:15.758Z,101147.00
2022-08-19T08:33:43.436Z,101153.00
2022-08-19T08:36:12.207Z,101150.00
2022-08-19T08:38:40.793Z,101148.00
2022-08-19T08:41:42.180Z,101150.00
2022-08-19T08:44:21.910Z,101152.00
2022-08-19T08:47:04.851Z,101154.00
2022-08-19T08:50:09.473Z,101146.00
2022-08-19T08:52:44.187Z,101141.00
2022-08-19T08:55:20.609Z,101151.00
2022-08-19T08:57:52.361Z,101137.00
2022-08-19T09:00:25.161Z,101137.00
2022-08-19T09:02:52.621Z,101139.00
2022-08-19T09:05:26.009Z,101142.00
2022-08-19T09:08:12.191Z,101140.00
2022-08-19T09:10:58.434Z,101135.00
2022-08-19T09:13:43.099Z,101134.00
2022-08-19T09:16:28.072Z,101131.00
2022-08-19T09:19:02.737Z,101139.00
2022-08-19T09:21:33.494Z,101130.00
2022-08-19T09:24:03.512Z,101129.00
2022-08-19T09:26:47.622Z,101129.00
2022-08-19T09:29:22.579Z,101137.00
2022-08-19T09:31:51.117Z,101138.00
2022-08-19T09:34:21.222Z,101140.00
2022-08-19T09:36:54.777Z,101134.00
2022-08-19T09:39:22.872Z,101134.00
2022-08-19T09:41:51.155Z,101134.00
2022-08-19T09:44:19.271Z,101133.00
2022-08-19T09:46:50.065Z,101139.00
2022-08-19T09:49:19.975Z,101128.00
2022-08-19T09:51:52.852Z,101140.00
2022-08-19T09:54:25.075Z,101132.00
2022-08-19T09:56:54.292Z,101143.00
2022-08-19T09:59:22.217Z,101135.00
2022-08-19T10:01:49.516Z,101134.00
2022-08-19T10:04:20.389Z,101132.00
2022-08-19T10:06:57.297Z,101138.00
2022-08-19T10:09:33.962Z,101135.00
2022-08-19T10:12:04.483Z,101135.00
2022-08-19T10:14:33.418Z,101133.00
2022-08-19T10:17:18.345Z,101132.00
2022-08-19T10:19:55.179Z,101139.00
2022-08-19T10:22:25.637Z,101135.00
2022-08-19T10:24:54.231Z,101130.00
2022-08-19T10:27:21.989Z,101135.00
2022-08-19T10:29:50.514Z,101132.00
2022-08-19T10:32:18.067Z,101130.00
2022-08-19T10:34:48.205Z,101133.00
2022-08-19T10:37:28.805Z,101135.00
2022-08-19T10:39:58.597Z,101128.00
2022-08-19T10:42:25.844Z,101131.00
2022-08-19T10:44:53.166Z,101129.00
2022-08-19T10:47:25.657Z,101116.00
2022-08-19T10:50:14.172Z,101111.00
2022-08-19T10:52:50.012Z,101102.00
2022-08-19T10:55:40.790Z,101103.00
2022-08-19T10:58:23.688Z,101099.00
2022-08-19T11:00:59.787Z,101092.00
2022-08-19T11:03:31.799Z,101103.00
2022-08-19T11:06:06.970Z,101106.00
2022-08-19T11:08:38.621Z,101109.00
2022-08-19T11:11:08.745Z,101111.00
2022-08-19T11:13:54.937Z,101110.00
2022-08-19T11:16:24.781Z,101095.00
2022-08-19T11:19:03.377Z,101107.00
2022-08-19T11:21:35.504Z,101101.00
2022-08-19T11:24:08.923Z,101096.00
2022-08-19T11:26:38.521Z,101094.00
2022-08-19T11:29:12.541Z,101099.00
2022-08-19T11:31:46.501Z,101080.00
2022-08-19T11:34:18.728Z,101086.00
2022-08-19T11:36:48.722Z,101085.00
2022-08-19T11:39:19.871Z,101093.00
2022-08-19T11:41:48.091Z,101092.00
2022-08-19T11:44:15.987Z,101095.00
2022-08-19T11:46:48.671Z,101100.00
2022-08-19T11:49:22.811Z,101105.00
2022-08-19T11:51:51.770Z,101112.00
2022-08-19T11:54:21.133Z,101102.00
2022-08-19T11:56:50.249Z,101107.00
2022-08-19T11:59:17.630Z,101100.00
2022-08-19T12:01:45.033Z,101105.00
2022-08-19T12:04:12.810Z,101105.00
2022-08-19T12:06:42.663Z,101108.00
2022-08-19T12:09:11.955Z,101103.00
2022-08-19T12:11:40.505Z,101103.00
2022-08-19T12:14:14.593Z,101103.00
2022-08-19T12:16:42.761Z,101100.00
2022-08-19T12:19:22.391Z,101091.00
2022-08-19T12:21:51.575Z,101103.00
2022-08-19T12:24:24.307Z,101115.00
2022-08-19T12:26:53.396Z,101106.00
2022-08-19T12:29:23.898Z,101115.00
2022-08-19T12:31:52.553Z,101110.00
2022-08-19T12:34:21.247Z,101124.00
2022-08-19T12:36:50.573Z,101108.00
2022-08-19T12:39:18.470Z,101100.00
2022-08-19T12:41:54.105Z,101108.00
2022-08-19T12:44:28.752Z,101118.00
2022-08-19T12:47:00.098Z,101110.00
2022-08-19T12:49:30.863Z,101108.00
2022-08-19T12:52:22.436Z,101102.00
2022-08-19T12:55:04.058Z,101101.00
2022-08-19T12:57:34.288Z,101102.00
2022-08-19T13:00:10.014Z,101087.00
2022-08-19T13:02:38.804Z,101090.00
2022-08-19T13:05:12.368Z,101084.00
2022-08-19T13:07:42.005Z,101090.00
2022-08-19T13:10:12.942Z,101080.00
2022-08-19T13:12:42.232Z,101104.00
2022-08-19T13:15:11.350Z,101091.00
2022-08-19T13:17:41.036Z,101093.00
2022-08-19T13:20:12.374Z,101087.00
2022-08-19T13:22:39.947Z,101089.00
2022-08-19T13:25:08.870Z,101096.00
2022-08-19T13:27:37.383Z,101090.00
2022-08-19T13:30:33.187Z,101091.00
2022-08-19T13:33:15.547Z,101096.00
2022-08-19T13:35:56.218Z,101089.00
2022-08-19T13:38:24.944Z,101087.00
2022-08-19T13:40:54.275Z,101084.00
2022-08-19T13:43:27.132Z,101075.00
2022-08-19T13:45:58.642Z,101080.00
2022-08-19T13:48:30.009Z,101077.00
2022-08-19T13:50:57.489Z,101074.00
2022-08-19T13:53:25.780Z,101062.00
2022-08-19T13:55:54.780Z,101075.00
2022-08-19T13:58:23.738Z,101067.00
2022-08-19T14:00:51.225Z,101072.00
2022-08-19T14:03:18.791Z,101071.00
2022-08-19T14:05:47.859Z,101075.00
2022-08-19T14:08:15.245Z,101067.00
2022-08-19T14:10:45.551Z,101066.00
2022-08-19T14:13:19.498Z,101057.00
2022-08-19T14:15:48.495Z,101068.00
2022-08-19T14:18:18.203Z,101070.00
2022-08-19T14:20:46.115Z,101067.00
2022-08-19T14:23:14.851Z,101065.00
2022-08-19T14:25:42.237Z,101060.00
2022-08-19T14:28:09.561Z,101064.00
2022-08-19T14:30:38.873Z,101070.00
2022-08-19T14:33:08.424Z,101065.00
2022-08-19T14:35:36.099Z,101070.00
2022-08-19T14:38:06.927Z,101067.00
2022-08-19T14:40:35.924Z,101062.00
2022-08-19T14:43:05.584Z,101056.00
2022-08-19T14:45:38.246Z,101054.00
2022-08-19T14:48:19.068Z,101052.00
2022-08-19T14:50:47.011Z,101047.00
2022-08-19T14:53:14.257Z,101053.00
2022-08-19T14:55:46.963Z,101045.00
2022-08-19T14:58:28.512Z,101043.00
2022-08-19T15:01:02.956Z,101054.00
2022-08-19T15:03:30.874Z,101049.00
2022-08-19T15:05:59.503Z,101051.00
2022-08-19T15:08:29.623Z,101054.00
2022-08-19T15:10:59.153Z,101057.00
2022-08-19T15:13:28.621Z,101063.00
2022-08-19T15:15:56.584Z,101062.00
2022-08-19T15:18:24.147Z,101065.00
2022-08-19T15:20:52.221Z,101065.00
2022-08-19T15:23:21.419Z,101074.00
2022-08-19T15:25:49.634Z,101073.00
2022-08-19T15:28:17.530Z,101076.00
2022-08-19T15:30:45.225Z,101071.00
2022-08-19T15:33:15.526Z,101073.00
2022-08-19T15:35:43.783Z,101075.00
2022-08-19T15:38:13.984Z,101081.00
2022-08-19T15:40:42.915Z,101087.00
2022-08-19T15:43:10.156Z,101079.00
2022-08-19T15:45:56.378Z,101080.00
2022-08-19T15:48:23.678Z,101084.00
2022-08-19T15:50:51.071Z,101080.00
2022-08-19T15:53:18.213Z,101090.00
2022-08-19T15:55:47.709Z,101094.00
2022-08-19T15:58:35.719Z,101092.00
2022-08-19T16:01:26.804Z,101089.00
2022-08-19T16:04:15.950Z,101095.00
2022-08-19T16:06:54.943Z,101099.00
2022-08-19T16:09:31.703Z,101108.00
2022-08-19T16:12:05.000Z,101099.00
2022-08-19T16:14:38.443Z,101100.00
2022-08-19T16:17:06.024Z,101105.00
2022-08-19T16:19:52.775Z,101105.00
2022-08-19T16:22:21.119Z,101107.00
2022-08-19T16:24:48.559Z,101103.00
2022-08-19T16:27:16.723Z,101105.00
2022-08-19T16:29:43.882Z,101100.00
2022-08-19T16:32:12.332Z,101101.00
2022-08-19T16:34:41.649Z,101103.00
2022-08-19T16:37:10.500Z,101106.00
2022-08-19T16:39:38.634Z,101100.00
2022-08-19T16:42:10.199Z,101106.00
2022-08-19T16:44:42.997Z,101112.00
2022-08-19T16:47:10.557Z,101111.00
2022-08-19T16:49:54.190Z,101111.00
2022-08-19T16:52:26.503Z,101117.00
2022-08-19T16:54:54.115Z,101115.00
2022-08-19T16:57:23.957Z,101113.00
2022-08-19T16:59:52.569Z,101111.00
2022-08-19T17:02:23.416Z,101118.00
2022-08-19T17:04:58.569Z,101106.00
2022-08-19T17:07:32.183Z,101117.00
2022-08-19T17:10:03.910Z,101114.00
2022-08-19T17:12:32.346Z,101111.00
2022-08-19T17:15:02.696Z,101106.00
2022-08-19T17:17:31.174Z,101108.00
2022-08-19T17:20:00.947Z,101112.00
2022-08-19T17:22:29.466Z,101110.00
2022-08-19T17:24:58.334Z,101099.00
2022-08-19T17:27:32.210Z,101110.00
2022-08-19T17:30:02.844Z,101101.00
2022-08-19T17:32:35.272Z,101103.00
2022-08-19T17:35:04.844Z,101111.00
2022-08-19T17:37:33.797Z,101107.00
2022-08-19T17:40:06.782Z,101111.00
2022-08-19T17:42:36.850Z,101116.00
2022-08-19T17:45:06.277Z,101114.00
2022-08-19T17:47:35.226Z,101115.00
2022-08-19T17:50:04.448Z,101121.00
2022-08-19T17:52:31.885Z,101122.00
2022-08-19T17:54:59.595Z,101126.00
2022-08-19T17:57:26.957Z,101114.00
2022-08-19T17:59:54.273Z,101110.00
2022-08-19T18:02:23.129Z,101102.00
2022-08-19T18:04:50.458Z,101103.00
2022-08-19T18:07:21.684Z,101104.00
2022-08-19T18:09:52.765Z,101094.00
2022-08-19T18:12:29.336Z,101103.00
2022-08-19T18:14:59.150Z,101096.00
2022-08-19T18:17:26.379Z,101108.00
2022-08-19T18:19:53.681Z,101111.00
2022-08-19T18:22:35.713Z,101116.00
2022-08-19T18:25:14.057Z,101115.00
2022-08-19T18:27:43.564Z,101119.00
2022-08-19T18:30:11.666Z,101109.00
2022-08-19T18:32:42.445Z,101116.00
2022-08-19T18:35:14.923Z,101110.00
2022-08-19T18:37:44.240Z,101108.00
2022-08-19T18:40:39.954Z,101118.00
2022-08-19T18:43:17.116Z,101121.00
2022-08-19T18:46:03.184Z,101129.00
2022-08-19T18:48:49.661Z,101138.00
2022-08-19T18:51:18.560Z,101119.00
2022-08-19T18:53:49.856Z,101146.00
2022-08-19T18:56:20.306Z,101149.00
2022-08-19T18:58:47.854Z,101149.00
2022-08-19T19:01:22.668Z,101157.00
2022-08-19T19:03:53.725Z,101152.00
2022-08-19T19:06:29.110Z,101160.00
2022-08-19T19:08:57.032Z,101161.00
2022-08-19T19:11:35.615Z,101160.00
2022-08-19T19:14:06.290Z,101163.00
2022-08-19T19:16:33.833Z,101158.00
2022-08-19T19:19:07.044Z,101168.00
2022-08-19T19:21:35.572Z,101173.00
2022-08-19T19:24:03.099Z,101175.00
2022-08-19T19:26:30.743Z,101180.00
2022-08-19T19:28:58.513Z,101186.00
2022-08-19T19:31:27.127Z,101184.00
2022-08-19T19:33:56.999Z,101191.00
2022-08-19T19:36:24.460Z,101186.00
2022-08-19T19:38:51.949Z,101189.00
2022-08-19T19:41:24.372Z,101190.00
2022-08-19T19:44:29.296Z,101188.00
2022-08-19T19:46:48.954Z,101191.00
2022-08-19T19:49:16.329Z,101183.00
2022-08-19T19:51:44.014Z,101179.00
2022-08-19T19:54:14.200Z,101195.00
2022-08-19T19:56:45.192Z,101202.00
2022-08-19T19:59:23.342Z,101195.00
2022-08-19T20:01:54.490Z,101194.00
2022-08-19T20:04:22.050Z,101209.00
2022-08-19T20:07:00.624Z,101194.00
2022-08-19T20:09:43.622Z,101209.00
2022-08-19T20:12:18.374Z,101205.00
2022-08-19T20:14:49.812Z,101196.00
2022-08-19T20:17:17.079Z,101201.00
2022-08-19T20:19:48.101Z,101209.00
2022-08-19T20:22:15.619Z,101202.00
2022-08-19T20:24:42.998Z,101193.00
2022-08-19T20:27:10.819Z,101210.00
2022-08-19T20:29:44.534Z,101212.00
2022-08-19T20:32:12.602Z,101209.00
2022-08-19T20:34:41.345Z,101203.00
2022-08-19T20:37:11.838Z,101213.00
2022-08-19T20:39:39.222Z,101208.00
2022-08-19T20:42:06.606Z,101207.00
2022-08-19T20:44:34.063Z,101204.00
2022-08-19T20:47:03.806Z,101221.00
2022-08-19T20:49:33.102Z,101217.00
2022-08-19T20:52:00.477Z,101211.00
2022-08-19T20:54:28.111Z,101209.00
2022-08-19T20:56:55.786Z,101210.00
2022-08-19T20:59:24.011Z,101215.00
2022-08-19T21:01:52.156Z,101212.00
2022-08-19T21:04:21.699Z,101221.00
2022-08-19T21:06:51.111Z,101219.00
2022-08-19T21:09:19.259Z,101218.00
2022-08-19T21:11:51.302Z,101219.00
2022-08-19T21:14:19.249Z,101221.00
2022-08-19T21:16:47.148Z,101221.00
2022-08-19T21:19:14.650Z,101216.00
2022-08-19T21:21:42.023Z,101216.00
2022-08-19T21:24:09.751Z,101217.00
2022-08-19T21:26:37.107Z,101216.00
2022-08-19T21:29:07.781Z,101211.00
2022-08-19T21:31:35.351Z,101211.00
2022-08-19T21:34:03.061Z,101207.00
2022-08-19T21:36:30.321Z,101214.00
2022-08-19T21:38:57.571Z,101205.00
2022-08-19T21:41:24.838Z,101202.00
2022-08-19T21:43:52.095Z,101204.00
2022-08-19T21:46:19.262Z,101203.00
2022-08-19T21:48:46.727Z,101202.00
2022-08-19T21:51:14.158Z,101205.00
2022-08-19T21:53:41.485Z,101207.00
2022-08-19T21:56:11.700Z,101213.00
2022-08-19T21:58:38.925Z,101205.00
2022-08-19T22:01:08.123Z,101199.00
2022-08-19T22:03:39.443Z,101202.00
2022-08-19T22:06:07.279Z,101205.00
2022-08-19T22:08:34.800Z,101213.00
2022-08-19T22:11:04.866Z,101211.00
2022-08-19T22:13:40.564Z,101213.00
2022-08-19T22:16:09.930Z,101212.00
2022-08-19T22:18:57.165Z,101216.00
2022-08-19T22:21:39.950Z,101221.00
2022-08-19T22:24:08.920Z,101223.00
2022-08-19T22:26:38.225Z,101221.00
2022-08-19T22:29:05.834Z,101219.00
2022-08-19T22:32:26.846Z,101228.00
2022-08-19T22:34:58.823Z,101225.00
2022-08-19T22:37:29.425Z,101218.00
2022-08-19T22:39:56.945Z,101234.00
2022-08-19T22:42:31.801Z,101227.00
2022-08-19T22:45:00.699Z,101234.00
2022-08-19T22:47:30.227Z,101228.00
2022-08-19T22:50:05.636Z,101226.00
2022-08-19T22:52:34.605Z,101231.00
2022-08-19T22:55:06.463Z,101235.00
2022-08-19T22:57:33.942Z,101232.00
2022-08-19T23:00:02.153Z,101236.00
2022-08-19T23:02:51.643Z,101238.00
2022-08-19T23:05:22.762Z,101231.00
2022-08-19T23:07:52.926Z,101240.00
2022-08-19T23:10:27.276Z,101224.00
2022-08-19T23:12:58.405Z,101234.00
2022-08-19T23:15:30.678Z,101246.00
2022-08-19T23:18:02.061Z,101231.00
2022-08-19T23:20:35.376Z,101237.00
2022-08-19T23:23:07.999Z,101234.00
2022-08-19T23:25:37.771Z,101233.00
2022-08-19T23:28:25.264Z,101229.00
2022-08-19T23:30:54.598Z,101232.00
2022-08-19T23:33:46.775Z,101224.00
2022-08-19T23:36:20.606Z,101222.00
2022-08-19T23:38:52.048Z,101218.00
2022-08-19T23:41:23.343Z,101228.00
2022-08-19T23:43:54.890Z,101231.00
2022-08-19T23:46:27.589Z,101233.00
2022-08-19T23:48:58.291Z,101231.00
2022-08-19T23:51:26.857Z,101223.00
2022-08-19T23:53:54.833Z,101222.00
2022-08-19T23:56:22.342Z,101217.00
2022-08-19T23:58:49.615Z,101208.00
